Airfield :
LOGIN :

Register | Disclaimer

   EN    FR    IT 

 










Legend :    VFR   Marginal VFR   IFR   Intensive IFR   Very Intensive IFR
Visi :
Ceiling :
>= 8 km
>= 3000ft
5 to 8 km
1000 to 3000 ft
1500m to 5 km
500 to 1000 ft
800 to 1500m
200 to 500 ft
< 800m
< 200 ft
Symbols :   Thunderstorms  Fog  Heavy snow  Heavy precipitations  Wind > 20 kt
SIGMETs :     Misc.  Thunderstorms  Icing  Turbulence  Mountain Waves  Volcanic Ashes







- Airport Elevation : 2026 ft
- IATA code : TOJ


LETO - Madrid Torrejon

CURRENT METAR :
  • 152200Z 20009KT 9999 SCT012 BKN016 09/08 Q1025 NOSIG

EXPIRED METARs :
  • 152100Z 23005KT 9999 OVC012 09/08 Q1025 NOSIG
  • 152000Z 20006KT 9999 OVC014 09/09 Q1025 NOSIG
  • 151917Z 20004KT 6000 FEW004 SCT008 OVC014 08/08 Q1026 NOSIG

TAF AMD TAF LETO
Valid from the 15 at 22:00 until the 16 at 18:00 UTC


152203Z 1522/1618 21008KT 9999 SCT012 BKN020 TX13/1615Z TNM05/1606Z
TEMPO 1522/1615 3000 RA BR BKN005
TEMPO 1602/1607 18005KT
TEMPO 1609/1618 24010KT
BECMG 1615/1618 FEW025
No reported NOTAMs for that airfield.



MET'MAP, your aeronautical weather chart ! - Copyright ORBIFLY December 2007 - Disclaimer

ORBIFLY MET'MAP TEAM :

Programming & Development : Alexandra Zaïnal
Concept & Development : Baudouin d'Aumeries
Co-Development & Prog : Marc-Olivier Méhu
Technical & hardware support : Manuel Goepfert

Contact : metmap@orbifly.com




SOURCES & CREDITS :

   NOAA